Portada
METAR-TAF:

METAR-TAF

Aeroports :

Aeroport de Tolosa-Blagnac

Tolosa, França

latitud: 43-38N, longitud: 001-22E, altitud: 152 m

Observació

L'informe es va fer fa 30 minuts, a les 07:30 UTC
Vent 3 kt amb direcció variable
Temperatura 21°C
Humitat 60%
Pressió 1018 hPa
Visibilitat 10 km o més
Escasses núvols a una alçada de 1900 ft

METAR: LFBO 250730Z AUTO VRB03KT 9999 FEW019 21/13 Q1018 NOSIG

Hora: 10:00 (08:00 UTC)

Pronòstic

L'informe es va fer fa 3 hores i 0 minuts, a les 05:00 UTC
Pronòstic vàlid del 25 a les 06 UTC al 26 a les 12 UTC
Vent 6 kt del Nord/Nord-Oest
Visibilitat 10 km o més
sense núvols per sota de 1500 mi sense presència de cumulonimbus.
Evolucionant progressivament
l' 25 a les 19 UTC al 25 a les 21 UTC
Vent 3 kt amb direcció variable
Evolucionant progressivament
l' 26 a les 07 UTC al 26 a les 09 UTC
Vent 10 kt del Sud-Est

TAF: LFBO 250500Z 2506/2612 33006KT CAVOK BECMG 2519/2521 VRB03KT BECMG 2607/2609 14010KT

Observacions i pronòstics meteorològics de més de 4000 aeroports (METAR i TAF).

Les estacions disponibles són els punts grocs i vermells al mapa.

Posi el ratolí al punt desitjat per veure el nom de l'estació.

Feu clic per veure les observacions i els pronòstics meteorològics.

Per canviar el mapa: feu clic els botons verds amb una creu de color negre per apropar; al botó verd amb un guió per allunyar la imatge; o en les fletxes verdes per a mapes adjacents.


METAR-TAF: